METAR Data
IDs: Format: Raw Decoded Include TAF

Data at: 2129 UTC 23 Oct 2021

EBFS 232055Z AUTO VRB01KT 9999 NCD 07/05 Q1027 BLU